Oxnard Airport
KOXR : now visible

Airfield :











YOU CAN JOIN US ON...

 
LOGIN :

Register | Disclaimer

   EN    FR    IT 

 









Legend :    VFR   Marginal VFR   IFR   Intensive IFR   Very Intensive IFR
Visi :
Ceiling :
>= 8 km
>= 3000ft
5 to 8 km
1000 to 3000 ft
1500m to 5 km
500 to 1000 ft
800 to 1500m
200 to 500 ft
< 800m
< 200 ft
Symbols :   Thunderstorms  Fog  Heavy snow  Heavy precipitations  Wind > 20 kt






- Airport Elevation : 45 ft


KOXR - Oxnard

CURRENT METAR :
  • 250951Z AUTO 26005KT 10SM OVC048 17/13 A2993 RMK AO2 SLP136 T01720128

EXPIRED METARs :
  • 250851Z AUTO 27006KT 10SM OVC048 17/12 A2993 RMK AO2 SLP135 T01670122 58004
  • 250751Z AUTO 25004KT 10SM OVC047 17/13 A2994 RMK AO2 SLP136 T01720128 402000156

TAF KOXR
Valid from the 25 at 06:00 until the 26 at 06:00 UTC


250530Z 2506/2606 VRB03KT P6SM SCT040
FM250800 VRB03KT P6SM OVC035
FM251900 26006KT P6SM OVC040
FM252200 26012KT P6SM SCT040
FM260400 26010KT P6SM BKN040
KZLA FIR / North America



MET'MAP, your aeronautical weather chart ! - Copyright ORBIFLY December 2007 - Disclaimer

ORBIFLY MET'MAP TEAM :

Programming & Development : Alexandra Zaïnal
Concept & original design : Baudouin d'Aumeries
Assistance for programming : Marc-Olivier Méhu
Technical & hardware support : Manuel Goepfert

Contact : metmap@orbifly.com




SOURCES & CREDITS :

   NOAA       Earth
Advisory